Time;durP1;ratioP1;P1;durP2;ratioP2;P2;SDS_P1;SDS_P2;PMS_P1;PMS_P2;Temp;Humidity;BMP_temperature;BMP_pressure;BME280_temperature;BME280_humidity;BME280_pressure;Samples;Min_cycle;Max_cycle;Signal;HPM_P1;HPM_P2
2024/04/25 00:00:37;;;;;;;4.47;4.15;;;5.00;99.90;;;;;;5453239;26;20067;-73
2024/04/25 00:03:05;;;;;;;4.40;4.10;;;4.90;99.90;;;;;;5457402;26;20003;-72
2024/04/25 00:05:32;;;;;;;5.07;4.68;;;4.90;99.90;;;;;;5457998;26;20011;-73
2024/04/25 00:07:59;;;;;;;4.65;4.13;;;4.80;99.90;;;;;;5483379;26;20019;-72
2024/04/25 00:10:26;;;;;;;3.50;3.20;;;4.80;99.90;;;;;;5490745;26;19994;-73
2024/04/25 00:12:53;;;;;;;4.82;3.78;;;4.80;99.90;;;;;;5487926;26;19994;-72
2024/04/25 00:15:20;;;;;;;6.55;6.05;;;4.70;99.90;;;;;;5488451;26;20045;-73
2024/04/25 00:17:47;;;;;;;4.43;3.28;;;4.70;99.90;;;;;;5490953;26;20511;-73
2024/04/25 00:20:15;;;;;;;7.63;4.05;;;4.60;99.90;;;;;;5490524;26;20010;-72
2024/04/25 00:22:42;;;;;;;5.07;4.55;;;4.60;99.90;;;;;;5490875;26;20001;-73
2024/04/25 00:25:09;;;;;;;7.10;5.05;;;4.50;99.90;;;;;;5490846;26;20010;-73
2024/04/25 00:27:36;;;;;;;6.18;4.32;;;4.50;99.90;;;;;;5488791;26;19998;-73
2024/04/25 00:30:04;;;;;;;5.80;5.30;;;4.40;99.90;;;;;;5491020;26;20013;-73
2024/04/25 00:32:31;;;;;;;4.85;4.57;;;4.40;99.90;;;;;;5488622;26;20010;-73
2024/04/25 00:34:58;;;;;;;4.55;4.18;;;4.50;99.90;;;;;;5490651;26;20010;-73
2024/04/25 00:37:25;;;;;;;3.45;3.22;;;4.40;99.90;;;;;;5488737;26;20006;-72
2024/04/25 00:39:54;;;;;;;4.93;4.53;;;4.50;99.90;;;;;;5458899;26;19998;-73
2024/04/25 00:42:23;;;;;;;5.22;4.93;;;4.40;99.90;;;;;;5488683;26;19994;-73
2024/04/25 00:44:51;;;;;;;4.68;3.15;;;4.50;99.90;;;;;;5488769;26;20042;-73
2024/04/25 00:47:20;;;;;;;5.07;2.90;;;4.50;99.90;;;;;;5488109;26;19994;-72
2024/04/25 00:49:49;;;;;;;2.63;2.53;;;4.50;99.90;;;;;;5489153;26;19998;-73
2024/04/25 00:52:19;;;;;;;3.72;3.42;;;4.50;99.90;;;;;;5488880;26;19994;-73
2024/04/25 00:54:47;;;;;;;3.42;3.22;;;4.60;99.90;;;;;;5488573;26;20009;-73
2024/04/25 00:57:15;;;;;;;4.53;4.22;;;4.60;99.90;;;;;;5488494;26;20013;-73
2024/04/25 00:59:49;;;;;;;4.40;4.00;;;4.60;99.90;;;;;;5490215;26;20002;-72
2024/04/25 01:02:18;;;;;;;5.40;4.90;;;4.70;99.90;;;;;;5490233;26;20046;-72
2024/04/25 01:04:47;;;;;;;6.60;4.60;;;4.70;99.90;;;;;;5490096;26;20010;-73
2024/04/25 01:07:15;;;;;;;3.85;3.55;;;4.80;99.90;;;;;;5490045;26;20016;-73
2024/04/25 01:09:42;;;;;;;9.60;5.20;;;4.80;99.90;;;;;;5489946;26;20400;-73
2024/04/25 01:12:09;;;;;;;4.85;4.45;;;4.90;99.90;;;;;;5488402;26;20520;-73
2024/04/25 01:14:37;;;;;;;4.20;3.78;;;4.90;99.90;;;;;;5489617;26;20013;-73
2024/04/25 01:17:04;;;;;;;4.30;3.92;;;5.00;99.90;;;;;;5488967;26;20323;-72
2024/04/25 01:19:31;;;;;;;4.93;3.83;;;5.10;99.90;;;;;;5488004;26;20459;-73
2024/04/25 01:21:58;;;;;;;6.32;6.03;;;5.20;99.90;;;;;;5458539;26;19994;-73
2024/04/25 01:24:27;;;;;;;3.83;3.63;;;5.20;99.90;;;;;;5488539;26;19998;-73
2024/04/25 01:26:58;;;;;;;2.35;2.25;;;5.30;99.90;;;;;;5488311;26;20006;-72
2024/04/25 01:29:26;;;;;;;3.70;3.38;;;5.30;99.90;;;;;;5488363;26;20098;-72
2024/04/25 01:31:54;;;;;;;3.30;3.10;;;5.30;99.90;;;;;;5490341;26;20000;-73
2024/04/25 01:34:23;;;;;;;3.65;3.40;;;5.30;99.90;;;;;;5489499;26;19998;-73
2024/04/25 01:36:51;;;;;;;4.53;4.15;;;5.30;99.90;;;;;;5489828;26;20512;-73
2024/04/25 01:39:18;;;;;;;2.20;2.10;;;5.30;99.90;;;;;;5489881;26;20343;-72
2024/04/25 01:41:45;;;;;;;3.30;3.00;;;5.30;99.90;;;;;;5487741;26;20102;-72
2024/04/25 01:44:12;;;;;;;4.03;3.72;;;5.30;99.90;;;;;;5489791;26;20006;-72
2024/04/25 01:46:41;;;;;;;3.80;3.50;;;5.30;99.90;;;;;;5487682;26;19998;-73
2024/04/25 01:49:08;;;;;;;5.18;4.32;;;5.30;99.90;;;;;;5489486;26;20524;-73
2024/04/25 01:51:35;;;;;;;4.38;4.18;;;5.30;99.90;;;;;;5487573;26;19998;-72
2024/04/25 01:54:03;;;;;;;3.03;2.47;;;5.40;99.90;;;;;;5457710;26;20006;-73
2024/04/25 01:56:30;;;;;;;3.45;3.15;;;5.40;99.90;;;;;;5487539;26;20002;-72
2024/04/25 01:59:00;;;;;;;4.03;3.60;;;5.40;99.90;;;;;;5488883;26;20125;-72
2024/04/25 02:01:27;;;;;;;5.55;3.63;;;5.40;99.90;;;;;;5487825;26;20004;-72
2024/04/25 02:03:54;;;;;;;2.67;2.47;;;5.40;99.90;;;;;;5518419;26;20070;-72
2024/04/25 02:06:21;;;;;;;3.53;3.25;;;5.40;99.90;;;;;;5457758;26;20005;-72
2024/04/25 02:08:48;;;;;;;2.25;2.05;;;5.40;99.90;;;;;;5489174;26;19994;-72
2024/04/25 02:11:15;;;;;;;2.90;2.55;;;5.40;99.90;;;;;;5487407;26;19998;-73
2024/04/25 02:13:42;;;;;;;3.55;3.35;;;5.40;99.90;;;;;;5487224;26;20021;-73
2024/04/25 02:16:09;;;;;;;2.80;2.60;;;5.40;99.90;;;;;;5489264;26;19998;-72
2024/04/25 02:18:36;;;;;;;2.58;1.65;;;5.40;99.90;;;;;;5457029;26;20397;-72
2024/04/25 02:26:35;;;;;;;2.72;2.42;;;5.50;99.90;;;;;;5488997;26;20106;-72
2024/04/25 02:29:02;;;;;;;3.05;2.85;;;5.50;99.90;;;;;;5489047;26;20009;-72
2024/04/25 02:31:31;;;;;;;3.15;1.63;;;5.50;99.90;;;;;;5486775;26;20013;-72
2024/04/25 02:33:59;;;;;;;3.80;3.58;;;5.50;99.90;;;;;;5487649;26;19998;-72
2024/04/25 02:36:26;;;;;;;2.25;1.98;;;5.50;99.90;;;;;;5487487;26;20067;-72
2024/04/25 02:38:53;;;;;;;1.75;1.65;;;5.50;99.90;;;;;;5488835;26;20389;-72
2024/04/25 02:41:20;;;;;;;2.25;2.05;;;5.40;99.90;;;;;;5487666;26;20475;-72
2024/04/25 02:43:47;;;;;;;1.77;1.67;;;5.60;99.90;;;;;;5486754;26;20399;-72
2024/04/25 02:46:14;;;;;;;2.75;2.55;;;5.40;99.90;;;;;;5487356;26;20043;-72
2024/04/25 02:48:41;;;;;;;4.47;2.50;;;5.40;99.90;;;;;;5487306;26;20361;-72
2024/04/25 02:51:09;;;;;;;2.30;2.13;;;5.40;99.90;;;;;;5456785;26;20009;-72
2024/04/25 02:53:36;;;;;;;3.05;2.85;;;5.60;99.90;;;;;;5488210;26;20009;-72
2024/04/25 02:56:04;;;;;;;2.55;2.35;;;5.40;99.90;;;;;;5486896;26;19998;-72
2024/04/25 02:58:32;;;;;;;2.67;2.53;;;5.40;99.90;;;;;;5488745;26;20066;-72
2024/04/25 03:01:03;;;;;;;2.47;2.28;;;5.40;99.90;;;;;;5474680;26;20027;-72
2024/04/25 03:03:30;;;;;;;2.33;2.22;;;5.40;99.90;;;;;;5453818;26;20010;-72
2024/04/25 03:05:58;;;;;;;2.08;1.98;;;5.40;99.90;;;;;;5482252;26;19998;-72
2024/04/25 03:08:25;;;;;;;2.85;2.63;;;5.40;99.90;;;;;;5488296;26;20022;-73
2024/04/25 03:10:52;;;;;;;4.15;3.85;;;5.30;99.90;;;;;;5510442;26;20074;-72
2024/04/25 03:13:19;;;;;;;2.67;2.47;;;5.30;99.90;;;;;;5516832;26;20069;-72
2024/04/25 03:15:46;;;;;;;3.80;1.90;;;5.30;99.90;;;;;;5488072;26;20382;-73
2024/04/25 03:18:13;;;;;;;6.63;2.72;;;5.30;99.90;;;;;;5486967;26;20066;-73
2024/04/25 03:20:41;;;;;;;5.05;2.97;;;5.20;99.90;;;;;;5488145;26;20002;-72
2024/04/25 03:23:08;;;;;;;4.68;2.35;;;5.20;99.90;;;;;;5488261;26;19994;-73
2024/04/25 03:25:35;;;;;;;3.13;2.58;;;5.10;99.90;;;;;;5488514;26;20455;-72
2024/04/25 03:28:02;;;;;;;4.15;2.03;;;5.10;99.90;;;;;;5488379;26;20002;-73
2024/04/25 03:30:29;;;;;;;2.10;2.00;;;5.20;99.90;;;;;;5486318;26;20074;-72
2024/04/25 03:32:56;;;;;;;2.90;2.63;;;5.20;99.90;;;;;;5516715;26;20070;-72
2024/04/25 03:35:23;;;;;;;3.15;2.95;;;5.20;99.90;;;;;;5485986;26;20013;-72
2024/04/25 03:37:50;;;;;;;2.92;1.05;;;5.20;99.90;;;;;;5485940;26;20012;-72
2024/04/25 03:40:18;;;;;;;4.57;3.00;;;5.20;99.90;;;;;;5487832;26;20452;-72
2024/04/25 03:42:45;;;;;;;3.15;2.05;;;5.20;99.90;;;;;;5485774;26;19998;-72
2024/04/25 03:45:12;;;;;;;7.00;3.35;;;5.20;99.90;;;;;;5516531;26;19999;-73
2024/04/25 03:47:39;;;;;;;2.78;2.17;;;5.20;99.90;;;;;;5485869;26;20013;-72
2024/04/25 03:50:06;;;;;;;2.65;2.55;;;5.20;99.90;;;;;;5487888;26;19998;-72
2024/04/25 03:52:33;;;;;;;2.40;2.22;;;5.20;99.90;;;;;;5516887;26;20044;-72
2024/04/25 03:55:00;;;;;;;2.55;2.35;;;5.20;99.90;;;;;;5487733;26;19994;-72
2024/04/25 03:57:27;;;;;;;3.30;2.20;;;5.10;99.90;;;;;;5485952;26;20349;-72
2024/04/25 03:59:55;;;;;;;3.05;2.17;;;5.00;99.90;;;;;;5485662;26;20010;-72
2024/04/25 04:02:22;;;;;;;2.53;2.42;;;4.90;99.90;;;;;;5486092;26;20005;-73
2024/04/25 04:04:49;;;;;;;2.63;2.33;;;5.00;99.90;;;;;;5487273;26;20359;-73
2024/04/25 04:07:16;;;;;;;11.55;2.97;;;4.80;99.90;;;;;;5487154;26;20074;-73
2024/04/25 04:09:43;;;;;;;2.92;2.80;;;4.70;99.90;;;;;;5486783;26;19998;-72
2024/04/25 04:12:10;;;;;;;5.93;2.08;;;4.60;99.90;;;;;;5485515;26;19998;-72
2024/04/25 04:14:37;;;;;;;3.13;2.67;;;4.60;99.90;;;;;;5485409;26;20006;-72
2024/04/25 04:17:05;;;;;;;4.45;2.53;;;4.50;99.90;;;;;;5486785;26;20078;-72
2024/04/25 04:19:32;;;;;;;6.05;2.33;;;4.50;99.90;;;;;;5485321;26;20067;-73
2024/04/25 04:21:59;;;;;;;4.18;3.53;;;4.50;99.90;;;;;;5486962;26;20013;-72
2024/04/25 04:24:27;;;;;;;2.90;2.70;;;4.50;99.90;;;;;;5488947;26;20439;-72
2024/04/25 04:26:54;;;;;;;3.45;2.85;;;4.50;99.90;;;;;;5490435;26;20002;-73
2024/04/25 04:29:22;;;;;;;3.28;2.40;;;4.50;99.90;;;;;;5519585;26;19994;-72
2024/04/25 04:31:49;;;;;;;3.30;2.70;;;4.40;99.90;;;;;;5490784;26;20047;-73
2024/04/25 04:34:16;;;;;;;3.03;2.88;;;4.40;99.90;;;;;;5490763;26;19994;-72
2024/04/25 04:36:43;;;;;;;3.20;3.10;;;4.40;99.90;;;;;;5489018;26;20034;-73
2024/04/25 04:39:11;;;;;;;3.35;3.05;;;4.40;99.90;;;;;;5490520;26;20006;-72
2024/04/25 04:41:38;;;;;;;4.45;2.95;;;4.40;99.90;;;;;;5519285;26;19998;-72
2024/04/25 04:44:05;;;;;;;6.38;3.00;;;4.50;99.90;;;;;;5490620;26;20005;-72
2024/04/25 04:46:33;;;;;;;4.78;2.25;;;4.50;99.90;;;;;;5490493;26;20070;-72
2024/04/25 04:49:00;;;;;;;3.88;2.42;;;4.50;99.90;;;;;;5490504;26;20009;-72
2024/04/25 04:51:27;;;;;;;2.90;2.60;;;4.50;99.90;;;;;;5490606;26;20455;-72
2024/04/25 04:53:55;;;;;;;3.95;3.40;;;4.50;99.90;;;;;;5518873;26;20477;-72
2024/04/25 04:56:22;;;;;;;7.82;3.13;;;4.50;99.90;;;;;;5488677;26;20078;-72
2024/04/25 04:58:49;;;;;;;3.60;1.92;;;4.60;99.90;;;;;;5490374;26;20013;-73
2024/04/25 05:01:17;;;;;;;3.72;3.53;;;4.80;99.90;;;;;;5503397;25;20441;-72
2024/04/25 05:03:44;;;;;;;3.28;3.00;;;4.60;99.90;;;;;;5445385;26;20007;-72
2024/04/25 05:06:11;;;;;;;3.35;1.95;;;4.80;99.90;;;;;;5480204;26;20042;-72
2024/04/25 05:08:38;;;;;;;4.53;2.80;;;4.70;99.90;;;;;;5490380;26;19994;-72
2024/04/25 05:11:07;;;;;;;1.38;1.27;;;4.80;99.90;;;;;;5488589;26;20066;-72
2024/04/25 05:13:34;;;;;;;2.97;2.10;;;4.90;99.90;;;;;;5518699;26;20006;-72
2024/04/25 05:16:01;;;;;;;2.50;1.73;;;4.90;99.90;;;;;;5487971;26;20005;-72
2024/04/25 05:18:28;;;;;;;1.02;0.93;;;5.00;99.90;;;;;;5488521;26;20384;-72
2024/04/25 05:20:56;;;;;;;3.13;2.05;;;5.00;99.90;;;;;;5489642;26;20025;-72
2024/04/25 05:23:23;;;;;;;4.53;1.90;;;5.10;99.90;;;;;;5490416;26;19994;-72
2024/04/25 05:25:51;;;;;;;4.57;2.85;;;5.10;99.90;;;;;;5488245;26;19998;-72
2024/04/25 05:28:18;;;;;;;3.42;3.15;;;5.20;99.90;;;;;;5487808;26;20472;-72
2024/04/25 05:30:45;;;;;;;3.55;2.80;;;5.20;99.90;;;;;;5489706;26;19998;-72
2024/04/25 05:33:12;;;;;;;2.72;2.53;;;5.30;99.90;;;;;;5517707;26;20002;-72
2024/04/25 05:35:40;;;;;;;3.88;1.73;;;5.30;99.90;;;;;;5488389;26;20002;-72
2024/04/25 05:38:07;;;;;;;6.05;3.17;;;5.50;99.90;;;;;;5457137;26;19998;-72
2024/04/25 05:40:34;;;;;;;5.20;3.55;;;5.50;99.90;;;;;;5487574;26;20009;-72
2024/04/25 05:43:02;;;;;;;4.85;2.65;;;5.60;99.90;;;;;;5517880;26;19998;-73
2024/04/25 05:45:29;;;;;;;6.47;1.98;;;5.60;99.90;;;;;;5489382;26;20285;-72
2024/04/25 05:47:57;;;;;;;3.08;2.17;;;5.70;99.90;;;;;;5487734;26;19998;-72
2024/04/25 05:50:24;;;;;;;5.80;2.15;;;5.80;99.90;;;;;;5487917;26;20495;-72
2024/04/25 05:52:51;;;;;;;3.53;1.88;;;5.80;99.90;;;;;;5489410;26;20066;-72
2024/04/25 05:55:18;;;;;;;3.67;2.60;;;5.90;99.90;;;;;;5518040;26;19998;-72
2024/04/25 05:57:45;;;;;;;2.17;2.08;;;5.90;99.90;;;;;;5518112;26;19994;-72
2024/04/25 06:00:12;;;;;;;2.40;2.03;;;6.00;99.90;;;;;;5489375;26;20044;-72
2024/04/25 06:02:39;;;;;;;3.72;2.15;;;6.00;99.90;;;;;;5489441;26;19997;-72
2024/04/25 06:05:07;;;;;;;2.88;2.58;;;6.10;99.90;;;;;;5488936;26;19998;-71
2024/04/25 06:07:34;;;;;;;3.58;1.42;;;6.20;99.90;;;;;;5457371;26;20043;-72
2024/04/25 06:10:01;;;;;;;2.05;1.90;;;6.10;99.90;;;;;;5484741;26;20018;-72
2024/04/25 06:12:29;;;;;;;1.67;1.55;;;6.50;99.90;;;;;;5488484;26;20385;-71
2024/04/25 06:14:56;;;;;;;3.45;2.05;;;6.60;99.90;;;;;;5487799;26;20002;-71
2024/04/25 06:17:23;;;;;;;3.38;2.00;;;6.70;99.90;;;;;;5488786;26;20447;-72
2024/04/25 06:19:50;;;;;;;3.42;2.22;;;6.90;99.90;;;;;;5488862;26;20002;-71
2024/04/25 06:22:17;;;;;;;3.90;1.80;;;7.00;99.90;;;;;;5487049;26;19998;-71
2024/04/25 06:24:44;;;;;;;2.80;2.70;;;7.20;99.90;;;;;;5488842;26;20455;-71
2024/04/25 06:27:11;;;;;;;2.90;1.98;;;7.50;99.90;;;;;;5488928;26;20004;-71
2024/04/25 06:29:39;;;;;;;5.45;0.80;;;7.60;99.90;;;;;;5487303;26;19994;-71
2024/04/25 06:32:06;;;;;;;5.07;1.63;;;7.80;99.90;;;;;;5488750;26;20070;-71
2024/04/25 06:34:33;;;;;;;2.50;1.83;;;8.00;99.90;;;;;;5486676;26;20008;-72
2024/04/25 06:37:04;;;;;;;3.35;2.10;;;8.20;99.90;;;;;;5488805;26;20062;-72
2024/04/25 06:39:32;;;;;;;2.42;1.20;;;8.10;99.90;;;;;;5458270;26;20026;-71
2024/04/25 06:42:01;;;;;;;1.50;1.40;;;8.30;99.90;;;;;;5487038;26;19998;-71
2024/04/25 06:44:29;;;;;;;5.85;2.50;;;8.40;99.90;;;;;;5486031;26;20002;-71
2024/04/25 06:47:00;;;;;;;3.70;2.35;;;8.50;99.90;;;;;;5428516;26;20069;-71
2024/04/25 06:49:28;;;;;;;6.10;2.75;;;8.70;99.90;;;;;;5488398;26;20082;-72
2024/04/25 06:51:55;;;;;;;7.65;3.60;;;8.90;99.90;;;;;;5488432;26;20519;-71
2024/04/25 06:54:22;;;;;;;5.15;2.50;;;9.10;99.90;;;;;;5486089;26;19998;-71
2024/04/25 06:56:51;;;;;;;3.72;2.03;;;9.20;99.90;;;;;;5486612;26;20413;-71
2024/04/25 06:59:19;;;;;;;4.28;2.17;;;9.20;99.90;;;;;;5488018;26;19998;-71
2024/04/25 07:01:49;;;;;;;1.80;1.40;;;9.30;99.90;;;;;;5486668;26;20350;-71
2024/04/25 07:04:16;;;;;;;3.42;1.92;;;9.30;99.90;;;;;;5486331;26;20010;-71
2024/04/25 07:06:44;;;;;;;4.65;1.80;;;9.40;99.90;;;;;;5488473;26;20005;-71
2024/04/25 07:09:11;;;;;;;4.75;2.05;;;9.50;99.90;;;;;;5488216;26;20070;-71
2024/04/25 07:11:38;;;;;;;3.20;2.40;;;9.60;99.90;;;;;;5488935;26;20439;-71
2024/04/25 07:14:05;;;;;;;2.53;1.30;;;9.50;98.80;;;;;;5488416;26;20070;-71
2024/04/25 07:16:32;;;;;;;1.52;1.42;;;9.40;99.40;;;;;;5486536;26;19994;-71
2024/04/25 07:18:59;;;;;;;1.98;1.50;;;9.20;99.10;;;;;;5486324;26;19994;-71
2024/04/25 07:21:29;;;;;;;4.28;2.20;;;9.30;99.70;;;;;;5486333;26;20500;-71
2024/04/25 07:23:56;;;;;;;2.08;1.48;;;9.20;99.60;;;;;;5487918;26;20008;-71
2024/04/25 07:26:25;;;;;;;2.15;1.92;;;9.30;99.70;;;;;;5456508;26;19998;-71
2024/04/25 07:28:54;;;;;;;2.80;1.60;;;9.40;99.90;;;;;;5487981;26;20436;-71
2024/04/25 07:31:21;;;;;;;1.67;1.58;;;9.50;99.10;;;;;;5485768;26;20038;-70
2024/04/25 07:33:49;;;;;;;3.55;2.28;;;9.50;97.50;;;;;;5486243;26;20013;-70
2024/04/25 07:36:22;;;;;;;4.00;2.63;;;9.60;99.20;;;;;;5485920;26;20017;-70
2024/04/25 07:38:50;;;;;;;1.95;1.10;;;9.70;98.70;;;;;;5486439;26;20014;-70
2024/04/25 07:41:18;;;;;;;1.52;1.42;;;9.80;99.60;;;;;;5485828;26;20010;-71
2024/04/25 07:43:45;;;;;;;4.07;1.90;;;10.10;99.50;;;;;;5487602;26;20014;-70
2024/04/25 07:46:12;;;;;;;2.00;1.80;;;10.20;97.90;;;;;;5486016;26;19994;-70
2024/04/25 07:48:40;;;;;;;2.00;1.83;;;10.60;97.20;;;;;;5488003;26;19997;-71
2024/04/25 07:51:07;;;;;;;2.50;2.33;;;10.90;96.50;;;;;;5486400;26;20450;-71
2024/04/25 07:53:34;;;;;;;3.65;1.58;;;11.40;95.90;;;;;;5486020;26;20009;-71
2024/04/25 07:56:02;;;;;;;10.35;1.10;;;11.70;94.40;;;;;;5516576;26;20002;-71
2024/04/25 07:58:29;;;;;;;6.32;2.28;;;11.90;94.50;;;;;;5488196;26;20005;-71
2024/04/25 08:00:56;;;;;;;3.45;1.55;;;12.00;92.40;;;;;;5491573;26;20040;-71
2024/04/25 08:03:24;;;;;;;4.70;2.60;;;12.20;94.00;;;;;;5489010;26;20010;-72
2024/04/25 08:05:51;;;;;;;2.58;1.73;;;12.30;91.70;;;;;;5489173;26;20073;-72
2024/04/25 08:08:19;;;;;;;2.42;1.95;;;12.20;92.50;;;;;;5488784;26;19998;-72
2024/04/25 08:10:49;;;;;;;;;;;12.00;90.70;;;;;;5491698;26;20034;-72
2024/04/25 08:13:16;;;;;;;2.55;1.98;;;11.80;89.70;;;;;;5490992;26;19936;-72
2024/04/25 08:15:43;;;;;;;1.52;1.40;;;11.80;91.10;;;;;;5489224;26;20002;-72
2024/04/25 08:18:10;;;;;;;3.70;1.65;;;12.20;92.30;;;;;;5489251;26;20110;-72
2024/04/25 08:20:38;;;;;;;2.75;2.05;;;13.00;91.40;;;;;;5490602;26;19998;-72
2024/04/25 08:23:05;;;;;;;2.95;2.13;;;13.80;91.50;;;;;;5490764;26;20009;-72
2024/04/25 08:25:32;;;;;;;2.63;1.30;;;14.20;90.00;;;;;;5488910;26;20010;-73
2024/04/25 08:27:59;;;;;;;2.13;2.03;;;14.10;87.40;;;;;;5491123;26;20022;-73
2024/04/25 08:30:26;;;;;;;6.32;2.95;;;13.80;86.20;;;;;;5490851;26;20005;-72
2024/04/25 08:32:54;;;;;;;4.63;1.88;;;13.40;87.90;;;;;;5490969;26;20009;-72
2024/04/25 08:35:21;;;;;;;3.97;1.73;;;13.00;87.70;;;;;;5459097;26;20026;-72
2024/04/25 08:37:49;;;;;;;4.57;2.13;;;12.50;87.30;;;;;;5458880;26;20002;-73
2024/04/25 08:40:17;;;;;;;2.00;1.50;;;11.80;86.90;;;;;;5488752;26;20004;-72
2024/04/25 08:42:49;;;;;;;2.70;1.55;;;11.40;88.80;;;;;;5490110;26;20002;-72
2024/04/25 08:45:18;;;;;;;10.25;2.22;;;11.30;90.60;;;;;;5490523;26;20010;-73
2024/04/25 08:47:47;;;;;;;4.90;4.60;;;11.30;90.60;;;;;;5487354;26;20010;-73
2024/04/25 08:50:16;;;;;;;1.70;1.60;;;11.30;87.40;;;;;;5457577;26;20003;-73
2024/04/25 08:52:46;;;;;;;3.80;1.95;;;11.20;88.00;;;;;;5481878;26;20013;-73
2024/04/25 08:55:14;;;;;;;3.70;2.20;;;11.20;86.90;;;;;;5451841;26;20444;-73
2024/04/25 08:57:41;;;;;;;5.07;2.08;;;11.20;87.70;;;;;;5453401;26;20551;-73
2024/04/25 09:00:08;;;;;;;5.35;2.92;;;11.20;89.90;;;;;;5471640;26;20070;-73
2024/04/25 09:02:36;;;;;;;3.60;2.53;;;11.20;88.60;;;;;;5481765;26;19999;-73
2024/04/25 09:05:07;;;;;;;3.08;1.30;;;11.20;89.20;;;;;;5453480;26;20366;-73
2024/04/25 09:07:34;;;;;;;3.38;1.67;;;11.10;88.10;;;;;;5451800;26;20320;-73
2024/04/25 09:10:01;;;;;;;2.28;1.90;;;10.90;87.90;;;;;;5451540;26;20071;-73
2024/04/25 09:12:31;;;;;;;2.60;2.05;;;10.80;87.70;;;;;;5440548;26;20098;-73
2024/04/25 09:15:00;;;;;;;2.38;2.17;;;10.70;88.80;;;;;;5453588;26;19999;-73
2024/04/25 09:17:27;;;;;;;3.03;2.10;;;10.70;89.00;;;;;;5453402;26;20325;-73
2024/04/25 09:19:58;;;;;;;3.83;1.63;;;10.80;89.00;;;;;;5462443;26;20030;-73
2024/04/25 09:22:26;;;;;;;2.65;1.70;;;10.90;89.30;;;;;;5452898;26;20406;-74
2024/04/25 09:24:53;;;;;;;2.25;1.77;;;11.10;89.00;;;;;;5476396;26;19999;-74
2024/04/25 09:27:21;;;;;;;4.63;1.85;;;11.30;88.00;;;;;;5453235;26;20071;-74
2024/04/25 09:29:53;;;;;;;2.47;2.28;;;11.50;88.20;;;;;;5460067;26;20359;-74
2024/04/25 09:32:20;;;;;;;2.63;1.80;;;11.80;88.60;;;;;;5474479;26;20323;-74
2024/04/25 09:34:48;;;;;;;3.38;2.35;;;12.20;86.10;;;;;;5459342;26;20006;-74
2024/04/25 09:37:16;;;;;;;4.57;2.15;;;12.40;82.20;;;;;;5481580;26;20037;-74
2024/04/25 09:39:43;;;;;;;5.32;1.23;;;12.60;84.00;;;;;;5458812;26;19999;-74
2024/04/25 09:42:17;;;;;;;2.47;1.38;;;13.20;86.30;;;;;;5453099;26;20031;-74
2024/04/25 09:44:44;;;;;;;2.78;1.58;;;14.10;84.60;;;;;;5451139;26;20003;-74
2024/04/25 09:47:20;;;;;;;2.90;1.85;;;15.00;83.60;;;;;;5453594;26;20006;-74
2024/04/25 09:49:51;;;;;;;0.75;0.70;;;16.00;82.90;;;;;;5468053;26;20410;-74
2024/04/25 09:52:22;;;;;;;3.83;1.42;;;16.80;75.30;;;;;;5495376;26;20076;-74
2024/04/25 09:54:52;;;;;;;1.83;1.60;;;16.90;77.20;;;;;;5483084;26;20026;-73
2024/04/25 09:57:22;;;;;;;1.77;1.40;;;16.80;72.30;;;;;;5459373;26;20555;-73
2024/04/25 09:59:59;;;;;;;1.58;1.48;;;16.70;74.80;;;;;;5480861;26;20014;-74
2024/04/25 10:02:28;;;;;;;3.63;1.60;;;16.50;74.30;;;;;;5475797;26;20043;-74
2024/04/25 10:04:56;;;;;;;4.00;1.20;;;16.30;73.70;;;;;;5459144;26;20373;-74
2024/04/25 10:07:25;;;;;;;3.00;2.10;;;16.10;74.90;;;;;;5450949;26;20017;-73
2024/04/25 10:09:53;;;;;;;1.92;1.02;;;16.00;73.00;;;;;;5460401;26;20003;-74
2024/04/25 10:12:22;;;;;;;3.47;1.30;;;15.80;72.50;;;;;;5408228;26;20068;-74
2024/04/25 10:15:04;;;;;;;2.15;1.40;;;15.60;72.60;;;;;;5481121;26;20005;-74
2024/04/25 10:17:34;;;;;;;1.83;1.15;;;14.90;74.90;;;;;;5463240;26;19998;-73
2024/04/25 10:20:03;;;;;;;;;;;14.20;77.00;;;;;;5480439;26;20011;-74
2024/04/25 10:22:31;;;;;;;4.40;2.13;;;13.70;78.30;;;;;;5452538;26;19924;-73
2024/04/25 10:25:00;;;;;;;3.88;2.47;;;13.00;80.00;;;;;;5480820;26;20013;-73
2024/04/25 10:27:29;;;;;;;3.75;2.15;;;12.50;81.40;;;;;;5462537;26;19994;-73
2024/04/25 10:30:04;;;;;;;3.60;2.10;;;12.20;82.80;;;;;;5471896;26;20075;-73
2024/04/25 10:32:32;;;;;;;5.20;2.10;;;12.10;80.90;;;;;;5476859;26;20078;-73
2024/04/25 10:35:01;;;;;;;3.47;2.25;;;11.90;80.10;;;;;;5458826;26;19998;-73
2024/04/25 10:37:28;;;;;;;2.45;1.67;;;12.00;82.30;;;;;;5478996;26;20013;-73
2024/04/25 10:40:01;;;;;;;2.10;1.92;;;11.90;83.10;;;;;;5468676;26;20462;-73
2024/04/25 10:42:28;;;;;;;1.75;1.65;;;11.70;84.10;;;;;;5463542;26;20078;-73
2024/04/25 10:44:55;;;;;;;2.95;1.35;;;11.30;84.70;;;;;;5480100;26;20335;-73
2024/04/25 10:47:23;;;;;;;1.95;1.85;;;11.00;85.20;;;;;;5429009;26;20112;-73
2024/04/25 10:49:50;;;;;;;2.88;1.58;;;10.60;86.90;;;;;;5480082;26;20079;-73
2024/04/25 10:52:17;;;;;;;1.95;1.35;;;10.00;89.70;;;;;;5474192;26;20042;-73
2024/04/25 10:54:45;;;;;;;1.48;1.30;;;9.40;90.00;;;;;;5449818;26;19999;-73
2024/04/25 10:57:13;;;;;;;1.40;1.35;;;9.10;90.40;;;;;;5449929;26;20072;-73
2024/04/25 10:59:40;;;;;;;1.67;1.60;;;8.70;90.60;;;;;;5451481;26;20003;-73
2024/04/25 11:02:09;;;;;;;1.55;0.50;;;8.60;91.00;;;;;;5463711;26;20405;-73
2024/04/25 11:04:40;;;;;;;0.77;0.57;;;8.50;91.00;;;;;;5450021;26;20390;-73
2024/04/25 11:07:10;;;;;;;1.10;1.10;;;8.60;91.10;;;;;;5420446;26;20067;-73
2024/04/25 11:09:38;;;;;;;1.77;1.67;;;8.70;90.60;;;;;;5463975;26;20009;-73
2024/04/25 11:12:06;;;;;;;2.40;1.50;;;9.00;90.20;;;;;;5450286;26;20397;-73
2024/04/25 11:14:36;;;;;;;1.98;1.48;;;9.30;89.40;;;;;;5450147;26;19998;-73
2024/04/25 11:17:03;;;;;;;2.05;1.90;;;9.50;89.00;;;;;;5446784;26;20026;-73
2024/04/25 11:19:30;;;;;;;3.22;0.63;;;9.80;88.70;;;;;;5450747;26;20586;-73
2024/04/25 11:22:01;;;;;;;1.65;1.55;;;10.10;88.30;;;;;;5450469;26;20440;-73
2024/04/25 11:24:28;;;;;;;2.90;2.63;;;10.50;86.40;;;;;;5448910;26;20456;-73
2024/04/25 11:26:58;;;;;;;2.00;1.90;;;10.80;84.80;;;;;;5450431;26;19995;-73
2024/04/25 11:29:26;;;;;;;1.73;1.27;;;10.90;85.00;;;;;;5450871;26;20030;-73
2024/04/25 11:31:53;;;;;;;2.90;1.60;;;11.30;84.50;;;;;;5449021;26;20018;-74
2024/04/25 11:34:22;;;;;;;6.10;2.03;;;11.70;84.10;;;;;;5449754;26;20035;-73
2024/04/25 11:37:04;;;;;;;4.35;2.10;;;12.20;81.80;;;;;;5451035;26;20007;-73
2024/04/25 11:39:33;;;;;;;4.70;1.73;;;12.70;80.10;;;;;;5449346;26;20393;-73
2024/04/25 11:42:04;;;;;;;2.10;1.92;;;13.50;79.90;;;;;;5451316;26;19995;-73
2024/04/25 11:44:33;;;;;;;2.15;1.98;;;14.00;78.80;;;;;;5451401;26;20014;-73
2024/04/25 11:47:01;;;;;;;2.70;2.35;;;13.90;76.90;;;;;;5451021;26;20013;-73
2024/04/25 11:49:29;;;;;;;1.80;1.70;;;13.80;77.40;;;;;;5449714;26;20006;-73
2024/04/25 11:51:56;;;;;;;2.80;2.05;;;13.60;79.20;;;;;;5453760;26;19998;-73
2024/04/25 11:54:23;;;;;;;2.05;1.95;;;13.50;78.80;;;;;;5454671;26;20072;-73
2024/04/25 11:56:50;;;;;;;2.75;2.55;;;13.70;79.50;;;;;;5471485;26;20002;-74
2024/04/25 11:59:18;;;;;;;2.90;2.15;;;13.90;79.40;;;;;;5485263;26;19998;-73
2024/04/25 12:01:45;;;;;;;6.55;2.63;;;13.80;78.10;;;;;;5459577;26;20010;-73
2024/04/25 12:04:12;;;;;;;7.30;2.45;;;13.50;78.50;;;;;;5470714;26;20076;-73
2024/04/25 12:06:39;;;;;;;4.57;2.42;;;13.40;79.60;;;;;;5469802;26;20071;-74
2024/04/25 12:09:06;;;;;;;2.58;2.38;;;13.30;78.60;;;;;;5472656;26;19999;-73
2024/04/25 12:11:35;;;;;;;3.00;2.78;;;13.10;79.00;;;;;;5448767;26;20010;-73
2024/04/25 12:14:03;;;;;;;1.83;1.70;;;12.90;79.60;;;;;;5448474;26;20011;-73
2024/04/25 12:16:30;;;;;;;2.72;2.50;;;12.70;79.80;;;;;;5456682;26;20011;-73
2024/04/25 12:18:57;;;;;;;4.80;2.47;;;12.70;80.70;;;;;;5432983;26;20010;-73
2024/04/25 12:21:25;;;;;;;2.72;1.73;;;12.60;80.00;;;;;;5450553;26;20356;-73
2024/04/25 12:23:52;;;;;;;2.17;1.98;;;12.60;79.80;;;;;;5450018;26;20002;-73
2024/04/25 12:26:19;;;;;;;4.03;2.42;;;12.40;78.80;;;;;;5461654;26;20059;-74
2024/04/25 12:28:47;;;;;;;2.10;1.92;;;12.10;78.20;;;;;;5448505;26;19999;-73
2024/04/25 12:31:14;;;;;;;3.70;2.83;;;11.90;80.70;;;;;;5467511;26;19999;-73
2024/04/25 12:33:42;;;;;;;4.82;2.53;;;11.80;81.40;;;;;;5474056;26;20019;-73
2024/04/25 12:36:09;;;;;;;8.38;1.75;;;11.90;81.40;;;;;;5447619;26;20005;-73
2024/04/25 12:38:36;;;;;;;4.35;1.95;;;12.30;81.00;;;;;;5460526;26;20076;-73
2024/04/25 12:41:04;;;;;;;1.80;1.70;;;12.60;80.50;;;;;;5462843;26;20014;-73
2024/04/25 12:43:31;;;;;;;3.00;2.08;;;13.10;79.80;;;;;;5450414;26;20103;-73
2024/04/25 12:45:58;;;;;;;3.25;2.38;;;13.50;77.60;;;;;;5453392;26;20003;-73
2024/04/25 12:48:28;;;;;;;2.50;1.95;;;13.50;76.60;;;;;;5453758;26;19999;-73
2024/04/25 12:50:56;;;;;;;2.25;2.05;;;13.30;77.80;;;;;;5465939;26;20071;-73
2024/04/25 12:53:23;;;;;;;2.95;2.25;;;13.10;79.60;;;;;;5453465;26;19999;-73
2024/04/25 12:55:50;;;;;;;2.08;1.67;;;12.70;80.70;;;;;;5451549;26;20011;-73
2024/04/25 12:58:17;;;;;;;4.97;2.30;;;12.50;81.30;;;;;;5453525;26;20010;-73
2024/04/25 13:00:44;;;;;;;2.42;2.00;;;12.30;81.60;;;;;;5463411;26;20108;-73